Time;durP1;ratioP1;P1;durP2;ratioP2;P2;SDS_P1;SDS_P2;PMS_P1;PMS_P2;Temp;Humidity;BMP_temperature;BMP_pressure;BME280_temperature;BME280_humidity;BME280_pressure;Samples;Min_cycle;Max_cycle;Signal;HPM_P1;HPM_P2
2022/01/11 00:01:27;;;;;;;0.40;0.40;;;1.10;99.90;;;0.84;100.00;101592.94;5051907;28;20202;-82
2022/01/11 00:03:56;;;;;;;0.45;0.45;;;1.10;99.90;;;0.94;100.00;101613.59;5036255;28;20221;-82
2022/01/11 00:06:40;;;;;;;0.30;0.30;;;1.10;99.90;;;0.92;100.00;101612.59;5069508;28;20213;-82
2022/01/11 00:09:19;;;;;;;0.50;0.50;;;1.10;99.90;;;0.79;100.00;101603.06;5052310;28;20230;-82
2022/01/11 00:11:49;;;;;;;0.20;0.20;;;1.10;99.90;;;0.76;100.00;101604.56;5067507;28;20702;-82
2022/01/11 00:14:17;;;;;;;0.38;0.38;;;1.10;99.90;;;0.81;100.00;101624.00;5028605;28;20221;-83
2022/01/11 00:16:45;;;;;;;0.65;0.65;;;1.20;99.90;;;0.64;100.00;101609.84;5034749;28;20221;-82
2022/01/11 00:19:14;;;;;;;0.50;0.50;;;1.00;99.90;;;0.62;100.00;101621.84;5048572;28;20233;-82
2022/01/11 00:21:47;;;;;;;0.40;0.40;;;1.00;99.90;;;0.58;100.00;101622.44;5033891;28;20252;-83
2022/01/11 00:24:35;;;;;;;0.40;0.40;;;1.00;99.90;;;0.70;100.00;101638.91;5053986;28;20204;-83
2022/01/11 00:27:06;;;;;;;0.30;0.30;;;0.90;99.90;;;0.64;100.00;101633.28;5042125;28;20206;-82
2022/01/11 00:29:40;;;;;;;0.40;0.40;;;0.90;99.90;;;0.58;100.00;101635.47;5049942;28;20238;-83
2022/01/11 00:32:17;;;;;;;0.30;0.30;;;0.90;99.90;;;0.51;100.00;101633.25;5053671;28;20217;-83
2022/01/11 00:34:51;;;;;;;0.30;0.30;;;0.80;99.90;;;0.67;100.00;101651.72;5061069;28;20206;-83
2022/01/11 00:37:21;;;;;;;0.55;0.43;;;0.80;99.90;;;0.62;100.00;101645.28;5045117;28;20582;-82
2022/01/11 00:39:50;;;;;;;0.40;0.40;;;0.90;99.90;;;0.48;100.00;101639.13;5034616;28;20217;-83
2022/01/11 00:42:21;;;;;;;0.40;0.40;;;0.80;99.90;;;0.54;100.00;101646.47;5036144;28;20217;-83
2022/01/11 00:44:49;;;;;;;0.30;0.30;;;0.80;99.90;;;0.44;100.00;101646.63;5008160;28;20217;-83
2022/01/11 00:47:18;;;;;;;0.63;0.63;;;0.80;99.90;;;0.40;100.00;101639.41;5054304;28;20214;-83
2022/01/11 00:49:46;;;;;;;0.40;0.40;;;0.70;99.90;;;0.39;100.00;101646.31;5057119;28;20211;-83
2022/01/11 00:52:14;;;;;;;0.40;0.40;;;0.70;99.90;;;0.34;100.00;101639.91;5059750;28;20234;-82
2022/01/11 00:54:42;;;;;;;0.40;0.40;;;0.70;99.90;;;0.21;100.00;101637.25;5057637;28;20218;-83
2022/01/11 00:57:11;;;;;;;0.43;0.43;;;0.60;99.90;;;0.28;100.00;101661.19;5041112;28;20289;-83
2022/01/11 00:59:40;;;;;;;0.40;0.40;;;0.70;99.90;;;0.36;100.00;101663.41;5042663;28;20198;-82
2022/01/11 01:02:08;;;;;;;0.30;0.30;;;0.60;99.90;;;0.23;100.00;101652.16;5053624;28;20675;-83
2022/01/11 01:04:37;;;;;;;0.40;0.40;;;0.60;99.90;;;0.32;100.00;101672.72;5037228;28;20211;-82
2022/01/11 01:07:05;;;;;;;0.40;0.40;;;0.50;99.90;;;0.43;100.00;101689.97;5056876;28;20210;-83
2022/01/11 01:10:02;;;;;;;0.57;0.57;;;0.70;99.90;;;0.41;100.00;101691.56;5073250;28;20226;-83
2022/01/11 01:12:21;;;;;;;0.40;0.40;;;0.70;99.90;;;0.46;100.00;101698.00;5046596;28;20221;-83
2022/01/11 01:14:50;;;;;;;0.40;0.40;;;0.60;99.90;;;0.48;100.00;101709.41;5049538;28;20212;-83
2022/01/11 01:17:18;;;;;;;0.30;0.30;;;0.70;99.90;;;0.49;100.00;101715.53;5043839;28;20206;-83
2022/01/11 01:19:46;;;;;;;0.30;0.30;;;0.70;99.90;;;0.44;100.00;101710.00;5055020;28;20206;-83
2022/01/11 01:22:14;;;;;;;0.50;0.50;;;0.70;99.90;;;0.51;100.00;101717.44;5053162;28;20218;-83
2022/01/11 01:24:43;;;;;;;0.35;0.35;;;0.70;99.90;;;0.45;100.00;101717.00;5025126;28;20211;-83
2022/01/11 01:27:11;;;;;;;0.40;0.40;;;0.70;99.90;;;0.51;100.00;101727.84;5057032;28;20198;-82
2022/01/11 01:29:40;;;;;;;0.30;0.30;;;0.70;99.90;;;0.39;100.00;101719.19;5053881;28;20205;-83
2022/01/11 01:32:10;;;;;;;0.57;0.57;;;0.70;99.90;;;0.45;100.00;101727.41;5028270;28;20219;-83
2022/01/11 01:34:38;;;;;;;0.40;0.40;;;0.80;99.90;;;0.38;100.00;101716.47;5061141;28;20602;-83
2022/01/11 01:37:07;;;;;;;0.43;0.43;;;0.70;99.90;;;0.52;100.00;101750.47;5042060;28;20657;-82
2022/01/11 01:39:36;;;;;;;0.50;0.50;;;0.80;99.90;;;0.44;100.00;101741.22;5025421;28;20225;-83
2022/01/11 01:42:08;;;;;;;0.30;0.30;;;0.70;99.90;;;0.40;100.00;101734.00;5062652;28;20590;-83
2022/01/11 01:44:36;;;;;;;0.30;0.30;;;0.70;99.90;;;0.46;100.00;101746.53;5058321;28;20217;-83
2022/01/11 01:47:04;;;;;;;0.40;0.40;;;0.80;99.90;;;0.53;100.00;101752.28;5063858;22;20234;-80
2022/01/11 01:49:34;;;;;;;0.50;0.50;;;0.80;99.90;;;0.51;100.00;101748.66;5021652;28;20206;-80
2022/01/11 01:52:03;;;;;;;0.40;0.40;;;0.80;99.90;;;0.65;100.00;101775.66;4996017;28;20207;-80
2022/01/11 01:54:31;;;;;;;0.50;0.50;;;0.80;99.90;;;0.69;100.00;101771.56;5018964;28;20191;-80
2022/01/11 01:56:59;;;;;;;0.50;0.50;;;0.90;99.90;;;0.70;100.00;101768.19;5015151;28;20223;-80
2022/01/11 01:59:28;;;;;;;0.30;0.30;;;0.90;99.90;;;0.74;100.00;101780.59;5020641;28;20206;-80
2022/01/11 02:01:57;;;;;;;0.30;0.30;;;0.90;99.90;;;0.72;100.00;101772.69;4995633;28;20208;-80
2022/01/11 02:04:26;;;;;;;0.60;0.60;;;0.90;99.90;;;0.70;100.00;101765.56;5002302;28;20576;-80
2022/01/11 02:06:54;;;;;;;0.47;0.47;;;0.90;99.90;;;0.62;100.00;101765.03;4989084;28;20227;-80
2022/01/11 02:09:22;;;;;;;0.30;0.30;;;0.90;99.90;;;0.75;100.00;101785.03;5003326;28;20210;-80
2022/01/11 02:11:50;;;;;;;0.60;0.60;;;1.00;99.90;;;0.76;100.00;101779.91;5004464;28;20215;-80
2022/01/11 02:14:20;;;;;;;0.88;0.68;;;1.00;99.90;;;0.78;100.00;101787.84;5001237;28;20239;-80
2022/01/11 02:16:48;;;;;;;0.50;0.50;;;1.00;99.90;;;0.75;100.00;101780.72;4988196;28;20226;-80
2022/01/11 02:19:18;;;;;;;0.52;0.52;;;1.10;99.90;;;0.68;100.00;101772.38;5019136;28;20203;-80
2022/01/11 02:21:46;;;;;;;0.50;0.50;;;1.10;99.90;;;0.61;100.00;101764.13;5016242;28;20215;-80
2022/01/11 02:24:14;;;;;;;0.40;0.40;;;1.00;99.90;;;0.67;100.00;101776.69;5013763;28;20208;-80
2022/01/11 02:26:42;;;;;;;0.40;0.40;;;1.00;99.90;;;0.68;100.00;101780.19;5010939;28;20227;-80
2022/01/11 02:29:10;;;;;;;0.32;0.32;;;1.00;99.90;;;0.74;100.00;101794.53;5014694;28;20207;-79
2022/01/11 02:31:39;;;;;;;0.40;0.40;;;1.00;99.90;;;0.79;100.00;101793.16;4996242;28;20215;-80
2022/01/11 02:34:09;;;;;;;0.40;0.40;;;1.10;99.90;;;0.74;100.00;101788.41;5000984;28;20231;-80
2022/01/11 02:36:42;;;;;;;0.50;0.50;;;1.10;99.90;;;0.83;100.00;101805.59;5019816;28;20227;-80
2022/01/11 02:39:34;;;;;;;0.40;0.40;;;1.10;99.90;;;0.92;100.00;101814.03;5041604;28;20211;-80
2022/01/11 02:42:15;;;;;;;0.38;0.38;;;1.10;99.90;;;0.87;100.00;101801.50;5004837;28;20204;-80
2022/01/11 02:44:44;;;;;;;0.60;0.60;;;1.10;99.90;;;0.89;100.00;101799.91;4971354;28;20211;-80
2022/01/11 02:47:19;;;;;;;0.90;0.90;;;1.10;99.90;;;0.90;100.00;101805.22;4997203;28;20247;-79
2022/01/11 02:49:50;;;;;;;0.40;0.40;;;1.10;99.90;;;0.87;100.00;101798.91;5033846;28;20606;-80
2022/01/11 02:52:23;;;;;;;0.55;0.55;;;1.10;99.90;;;0.79;100.00;101787.94;5016805;28;20203;-80
2022/01/11 02:55:08;;;;;;;0.50;0.50;;;1.10;99.90;;;0.79;100.00;101792.25;5017890;28;20688;-80
2022/01/11 02:57:37;;;;;;;0.50;0.50;;;1.10;99.90;;;0.81;100.00;101788.06;4987156;28;20214;-79
2022/01/11 03:00:20;;;;;;;0.50;0.50;;;1.10;99.90;;;0.82;100.00;101798.56;5030549;28;20211;-79
2022/01/11 03:02:49;;;;;;;0.50;0.50;;;1.00;99.90;;;0.75;100.00;101782.41;5001808;28;20210;-79
2022/01/11 03:05:22;;;;;;;0.45;0.45;;;1.00;99.90;;;0.74;100.00;101785.81;5009654;28;20239;-79
2022/01/11 03:07:51;;;;;;;0.65;0.65;;;1.00;99.90;;;0.68;100.00;101780.19;4999090;28;20215;-79
2022/01/11 03:10:34;;;;;;;0.50;0.50;;;1.00;99.90;;;0.65;100.00;101770.47;5000765;28;20215;-79
2022/01/11 03:13:08;;;;;;;0.50;0.50;;;0.90;99.90;;;0.67;100.00;101787.09;5000518;28;20218;-79
2022/01/11 03:15:39;;;;;;;0.50;0.50;;;0.90;99.90;;;0.68;100.00;101788.00;4991300;28;20230;-79
2022/01/11 03:18:11;;;;;;;0.50;0.50;;;1.00;99.90;;;0.60;100.00;101782.25;4984732;28;20207;-79
2022/01/11 03:20:48;;;;;;;0.40;0.40;;;1.00;99.90;;;0.59;100.00;101780.44;5017516;28;20199;-79
2022/01/11 03:23:18;;;;;;;0.30;0.30;;;0.90;99.90;;;0.60;100.00;101790.06;5000879;28;20214;-80
2022/01/11 03:25:50;;;;;;;0.45;0.45;;;0.90;99.90;;;0.56;100.00;101788.03;5017666;28;20279;-80
2022/01/11 03:28:23;;;;;;;0.30;0.30;;;0.90;99.90;;;0.59;100.00;101793.47;5005180;28;20207;-80
2022/01/11 03:30:53;;;;;;;0.55;0.55;;;0.80;99.90;;;0.68;100.00;101809.72;5003178;28;20207;-79
2022/01/11 03:33:23;;;;;;;0.47;0.47;;;0.90;99.90;;;0.68;100.00;101806.22;5018951;28;20231;-80
2022/01/11 03:35:52;;;;;;;0.65;0.65;;;0.90;99.90;;;0.62;100.00;101801.47;5021218;28;20245;-79
2022/01/11 03:38:22;;;;;;;0.50;0.50;;;0.90;99.90;;;0.67;100.00;101802.72;5033864;28;20207;-80
2022/01/11 03:40:57;;;;;;;0.30;0.30;;;0.90;99.90;;;0.63;100.00;101806.81;4997799;28;20211;-79
2022/01/11 03:43:26;;;;;;;0.30;0.30;;;0.90;99.90;;;0.60;100.00;101805.69;4996327;28;20211;-80
2022/01/11 03:45:54;;;;;;;0.80;0.80;;;0.90;99.90;;;0.57;100.00;101805.47;5004931;28;20235;-80
2022/01/11 03:48:23;;;;;;;0.50;0.50;;;0.90;99.90;;;0.61;100.00;101816.19;5030824;28;20210;-80
2022/01/11 03:50:53;;;;;;;0.50;0.50;;;0.90;99.90;;;0.68;100.00;101822.75;5017741;28;20214;-80
2022/01/11 03:53:54;;;;;;;0.40;0.40;;;0.90;99.90;;;0.75;100.00;101830.19;5020850;28;20215;-79
2022/01/11 03:56:26;;;;;;;0.50;0.50;;;0.90;99.90;;;0.71;100.00;101828.16;5004004;28;20228;-79
2022/01/11 03:59:10;;;;;;;0.90;0.90;;;0.90;99.90;;;0.76;100.00;101837.19;5005791;28;20199;-79
2022/01/11 04:01:39;;;;;;;0.55;0.55;;;1.00;99.90;;;0.78;100.00;101835.63;5000173;28;20218;-79
2022/01/11 04:04:11;;;;;;;0.50;0.50;;;1.00;99.90;;;0.83;100.00;101838.53;5012634;28;20211;-79
2022/01/11 04:06:41;;;;;;;0.52;0.52;;;1.00;99.90;;;0.92;100.00;101857.41;5028469;28;20247;-79
2022/01/11 04:09:11;;;;;;;0.60;0.60;;;1.10;99.90;;;0.94;100.00;101867.16;4998494;28;20208;-79
2022/01/11 04:11:40;;;;;;;1.05;1.05;;;1.10;99.90;;;0.89;100.00;101857.19;4998108;28;20203;-79
2022/01/11 04:14:08;;;;;;;0.63;0.63;;;1.10;99.90;;;0.85;100.00;101853.47;5014955;28;20242;-79
2022/01/11 04:16:36;;;;;;;0.60;0.60;;;1.10;99.90;;;0.84;100.00;101856.88;5009694;28;20227;-79
2022/01/11 04:19:06;;;;;;;0.50;0.50;;;1.10;99.90;;;0.82;100.00;101857.56;5001238;28;20206;-79
2022/01/11 04:21:34;;;;;;;0.70;0.70;;;1.10;99.90;;;0.80;100.00;101856.56;5003339;28;20207;-79
2022/01/11 04:24:03;;;;;;;0.40;0.40;;;1.10;99.90;;;0.84;100.00;101862.09;4999000;28;20203;-79
2022/01/11 04:26:31;;;;;;;0.63;0.63;;;1.10;99.90;;;0.88;100.00;101865.81;4982653;28;20751;-79
2022/01/11 04:29:04;;;;;;;0.40;0.40;;;1.10;99.90;;;0.93;100.00;101872.25;5010585;28;20203;-79
2022/01/11 04:31:34;;;;;;;0.50;0.50;;;1.10;99.90;;;0.88;100.00;101871.03;4988783;28;20210;-79
2022/01/11 04:34:07;;;;;;;1.13;1.13;;;1.10;99.90;;;0.90;100.00;101874.63;5012599;28;20560;-79
2022/01/11 04:36:37;;;;;;;0.40;0.40;;;1.20;99.90;;;0.81;100.00;101861.88;5017118;28;20223;-79
2022/01/11 04:39:10;;;;;;;0.43;0.43;;;1.20;99.90;;;0.70;100.00;101857.59;5016405;28;20214;-79
2022/01/11 04:41:39;;;;;;;0.30;0.30;;;1.10;99.90;;;0.68;100.00;101858.28;4983311;28;20208;-79
2022/01/11 04:44:08;;;;;;;0.40;0.40;;;1.10;99.90;;;0.69;100.00;101866.22;4999934;28;20216;-80
2022/01/11 04:46:37;;;;;;;0.30;0.30;;;1.00;99.90;;;0.68;100.00;101858.28;4996340;28;20236;-79
2022/01/11 04:49:06;;;;;;;0.28;0.28;;;1.00;99.90;;;0.68;100.00;101872.22;4973619;28;20200;-79
2022/01/11 04:51:35;;;;;;;0.45;0.45;;;1.00;99.90;;;0.68;100.00;101876.50;5021105;28;20234;-79
2022/01/11 04:54:05;;;;;;;0.30;0.30;;;1.00;99.90;;;0.73;100.00;101886.47;4970064;28;20223;-79
2022/01/11 04:56:33;;;;;;;0.40;0.40;;;1.00;99.90;;;0.72;100.00;101887.25;5003526;28;20223;-79
2022/01/11 04:59:03;;;;;;;0.30;0.30;;;1.00;99.90;;;0.70;100.00;101881.03;4994685;28;20212;-79
2022/01/11 05:01:34;;;;;;;0.30;0.30;;;1.00;99.90;;;0.69;100.00;101884.44;4995319;28;20207;-79
2022/01/11 05:04:03;;;;;;;0.20;0.20;;;1.00;99.90;;;0.71;100.00;101888.06;5014911;28;20596;-79
2022/01/11 05:06:31;;;;;;;0.20;0.20;;;1.00;99.90;;;0.75;100.00;101889.19;5026049;28;20228;-79
2022/01/11 05:09:00;;;;;;;0.30;0.30;;;1.00;99.90;;;0.79;100.00;101897.31;4992261;28;20215;-79
2022/01/11 05:11:28;;;;;;;0.38;0.38;;;1.10;99.90;;;0.75;100.00;101891.78;4997734;28;20215;-79
2022/01/11 05:13:57;;;;;;;0.47;0.47;;;1.00;99.90;;;0.75;100.00;101891.78;4994577;28;20230;-79
2022/01/11 05:16:37;;;;;;;0.40;0.40;;;1.10;99.90;;;0.69;100.00;101891.34;5014697;28;20219;-79
2022/01/11 05:19:12;;;;;;;0.40;0.40;;;1.00;99.90;;;0.70;100.00;101886.25;4984348;28;20218;-79
2022/01/11 05:21:42;;;;;;;0.30;0.30;;;1.00;99.90;;;0.75;100.00;101894.38;5011893;28;20214;-79
2022/01/11 05:24:11;;;;;;;0.40;0.40;;;1.00;99.90;;;0.77;100.00;101908.41;4993905;28;20211;-79
2022/01/11 05:26:39;;;;;;;0.30;0.30;;;1.00;99.90;;;0.73;100.00;101907.28;5009762;28;20235;-79
2022/01/11 05:29:07;;;;;;;0.30;0.30;;;1.00;99.90;;;0.71;100.00;101900.16;4998696;28;20219;-79
2022/01/11 05:31:37;;;;;;;0.40;0.40;;;1.00;99.90;;;0.72;100.00;101900.28;4982831;28;20216;-80
2022/01/11 05:34:05;;;;;;;0.40;0.40;;;1.00;99.90;;;0.73;100.00;101899.47;5006209;28;20233;-80
2022/01/11 05:36:33;;;;;;;0.38;0.38;;;1.00;99.90;;;0.77;100.00;101913.63;5023565;28;20211;-80
2022/01/11 05:39:02;;;;;;;0.45;0.45;;;1.10;99.90;;;0.84;100.00;101915.88;5022589;28;20203;-79
2022/01/11 05:41:31;;;;;;;0.55;0.55;;;1.10;99.90;;;0.87;100.00;101930.03;5005578;28;20200;-79
2022/01/11 05:43:59;;;;;;;0.40;0.40;;;1.10;99.90;;;0.91;100.00;101933.75;5004853;28;20218;-80
2022/01/11 05:46:29;;;;;;;0.50;0.50;;;1.10;99.90;;;0.86;100.00;101928.22;5004184;28;20232;-78
2022/01/11 05:48:58;;;;;;;0.40;0.40;;;1.10;99.90;;;0.86;100.00;101925.59;5006911;28;20202;-79
2022/01/11 05:51:27;;;;;;;0.40;0.40;;;1.20;99.90;;;0.87;100.00;101927.41;5042889;28;20206;-79
2022/01/11 05:53:56;;;;;;;0.50;0.50;;;1.20;99.90;;;0.88;100.00;101929.22;5002971;28;20670;-79
2022/01/11 05:56:25;;;;;;;0.40;0.40;;;1.20;99.90;;;0.85;100.00;101930.69;5019241;28;20318;-78
2022/01/11 05:58:53;;;;;;;0.77;0.77;;;1.20;99.90;;;0.90;100.00;101934.53;5020548;28;20208;-79
2022/01/11 06:01:23;;;;;;;0.45;0.45;;;1.20;99.90;;;0.92;100.00;101941.66;5001164;28;20204;-79
2022/01/11 06:03:52;;;;;;;0.30;0.30;;;1.20;99.90;;;0.92;100.00;101941.66;5022982;28;20203;-78
2022/01/11 06:06:20;;;;;;;0.40;0.40;;;1.20;99.90;;;0.95;100.00;101943.59;4997600;28;20234;-79
2022/01/11 06:08:49;;;;;;;0.40;0.40;;;1.20;99.90;;;0.89;100.00;101933.63;4998695;28;20203;-80
2022/01/11 06:11:17;;;;;;;0.35;0.35;;;1.20;99.90;;;0.88;100.00;101934.44;5031544;28;20247;-80
2022/01/11 06:13:51;;;;;;;0.20;0.20;;;1.20;99.90;;;0.89;100.00;101940.53;5006667;28;20203;-80
2022/01/11 06:16:21;;;;;;;0.30;0.30;;;1.20;99.90;;;0.88;100.00;101936.13;4995940;28;20239;-80
2022/01/11 06:18:51;;;;;;;0.30;0.30;;;1.30;99.90;;;0.99;100.00;101952.53;5022034;28;20199;-79
2022/01/11 06:21:26;;;;;;;0.40;0.40;;;1.30;99.90;;;1.06;100.00;101959.97;5032295;28;20214;-80
2022/01/11 06:23:54;;;;;;;0.30;0.30;;;1.30;99.90;;;1.03;100.00;101955.47;5011936;28;20199;-80
2022/01/11 06:26:22;;;;;;;0.30;0.30;;;1.30;99.90;;;0.96;100.00;101958.41;5000738;28;20243;-80
2022/01/11 06:28:51;;;;;;;0.30;0.30;;;1.30;99.90;;;0.93;100.00;101950.38;4987842;28;20207;-79
2022/01/11 06:31:19;;;;;;;0.35;0.35;;;1.30;99.90;;;0.89;100.00;101954.47;4991816;28;20207;-79
2022/01/11 06:33:47;;;;;;;0.20;0.20;;;1.20;99.90;;;0.89;100.00;101951.88;5025519;28;20222;-80
2022/01/11 06:36:20;;;;;;;0.40;0.40;;;1.30;99.90;;;0.91;100.00;101958.09;4986116;28;20231;-80
2022/01/11 06:38:50;;;;;;;0.30;0.30;;;1.30;99.90;;;1.01;100.00;101963.97;5013443;28;20212;-79
2022/01/11 06:41:24;;;;;;;0.30;0.30;;;1.30;99.90;;;1.04;100.00;101966.78;4998327;28;20211;-80
2022/01/11 06:43:54;;;;;;;0.40;0.40;;;1.30;99.90;;;1.12;100.00;101976.97;5020842;28;20195;-80
2022/01/11 06:46:24;;;;;;;0.40;0.40;;;1.30;99.90;;;1.09;100.00;101973.22;5019388;28;20234;-80
2022/01/11 06:48:57;;;;;;;0.50;0.50;;;1.40;99.90;;;1.02;100.00;101961.47;4980736;28;20223;-80
2022/01/11 06:51:25;;;;;;;0.30;0.30;;;1.30;99.90;;;1.03;100.00;101975.41;4984493;28;20218;-80
2022/01/11 06:53:53;;;;;;;0.20;0.20;;;1.40;99.90;;;0.99;100.00;101971.66;5049671;28;20222;-80
2022/01/11 06:56:22;;;;;;;0.30;0.30;;;1.30;99.90;;;0.96;100.00;101968.84;5020568;28;20235;-80
2022/01/11 06:58:54;;;;;;;0.32;0.32;;;1.30;99.90;;;0.98;100.00;101975.06;5012494;28;20223;-80
2022/01/11 07:01:22;;;;;;;0.38;0.38;;;1.40;99.90;;;1.01;100.00;101980.50;5016999;28;20573;-80
2022/01/11 07:03:57;;;;;;;0.30;0.30;;;1.30;99.90;;;0.96;100.00;101982.78;5028216;28;20204;-80
2022/01/11 07:06:28;;;;;;;0.40;0.40;;;1.40;99.90;;;0.92;100.00;101985.94;5031849;28;20250;-80
2022/01/11 07:08:56;;;;;;;0.40;0.40;;;1.40;99.90;;;0.90;100.00;101987.53;5048277;28;20581;-80
2022/01/11 07:11:29;;;;;;;0.30;0.30;;;1.40;99.90;;;0.87;100.00;101989.00;5029262;28;20208;-80
2022/01/11 07:14:03;;;;;;;0.30;0.30;;;1.30;99.90;;;0.86;100.00;101988.13;5024354;28;20211;-79
2022/01/11 07:16:32;;;;;;;0.30;0.30;;;1.30;99.90;;;0.86;100.00;101995.94;4999809;28;20258;-79
2022/01/11 07:19:05;;;;;;;0.30;0.30;;;1.30;99.90;;;0.94;100.00;102018.22;5001482;28;20566;-80
2022/01/11 07:21:46;;;;;;;0.40;0.40;;;1.30;99.90;;;0.92;100.00;102016.31;5032148;28;20215;-79
2022/01/11 07:24:18;;;;;;;0.20;0.20;;;1.30;99.90;;;0.94;100.00;102023.44;5037542;28;20203;-80
2022/01/11 07:26:48;;;;;;;0.20;0.20;;;1.30;99.90;;;0.92;100.00;102022.41;5015997;28;20223;-79
2022/01/11 07:29:18;;;;;;;0.20;0.20;;;1.30;99.90;;;0.91;100.00;102035.31;5014895;28;20214;-80
2022/01/11 07:32:20;;;;;;;;;;;;;;;;;;;;;
2022/01/11 07:35:29;;;;;;;0.30;0.30;;;1.30;99.90;;;0.95;100.00;102043.47;5054316;28;20231;-80
2022/01/11 07:37:59;;;;;;;0.30;0.30;;;1.30;99.90;;;0.97;100.00;102048.81;4994770;28;20215;-80
2022/01/11 07:40:29;;;;;;;0.30;0.30;;;1.40;99.90;;;0.98;100.00;102050.63;5001909;28;20199;-80
2022/01/11 07:43:04;;;;;;;0.30;0.30;;;1.40;99.90;;;1.00;100.00;102048.13;5046670;28;20211;-80
2022/01/11 07:45:50;;;;;;;0.30;0.30;;;1.40;99.90;;;1.02;100.00;102056.94;5035382;28;20254;-80
2022/01/11 07:48:20;;;;;;;0.30;0.30;;;1.40;99.90;;;1.02;100.00;102062.16;5032577;28;20207;-80
2022/01/11 07:50:58;;;;;;;0.30;0.30;;;1.50;99.90;;;1.02;100.00;102063.06;5032956;28;20202;-83
2022/01/11 07:53:27;;;;;;;0.30;0.30;;;1.50;99.90;;;1.02;100.00;102054.34;5012679;28;20701;-80
2022/01/11 07:56:01;;;;;;;0.43;0.43;;;1.40;99.90;;;1.02;100.00;102056.94;5028507;28;20250;-80
2022/01/11 07:58:37;;;;;;;0.30;0.30;;;1.40;99.90;;;1.04;100.00;102068.38;4986301;28;20203;-80
2022/01/11 08:01:06;;;;;;;0.30;0.30;;;1.50;99.90;;;1.14;100.00;102070.88;4997423;28;20228;-80
2022/01/11 08:03:39;;;;;;;0.40;0.40;;;1.50;99.90;;;1.22;100.00;102074.94;5047823;28;20203;-79
2022/01/11 08:06:15;;;;;;;0.20;0.20;;;1.70;99.90;;;1.25;100.00;102068.25;5005475;28;20218;-80
2022/01/11 08:08:47;;;;;;;0.20;0.20;;;1.50;99.90;;;1.26;100.00;102066.56;5016602;28;20203;-80
2022/01/11 08:11:20;;;;;;;0.20;0.20;;;1.50;99.90;;;1.27;100.00;102065.75;5003957;28;20210;-80
2022/01/11 08:13:48;;;;;;;0.20;0.20;;;1.60;99.90;;;1.31;100.00;102072.13;4998999;28;20219;-80
2022/01/11 08:16:16;;;;;;;0.30;0.30;;;1.60;99.90;;;1.31;100.00;102069.53;4999756;28;20223;-80
2022/01/11 08:18:46;;;;;;;0.30;0.30;;;1.60;99.90;;;1.33;100.00;102067.94;5000014;28;20195;-80
2022/01/11 08:21:14;;;;;;;0.30;0.30;;;1.60;99.90;;;1.39;100.00;102070.97;4997991;28;20218;-80
2022/01/11 08:23:42;;;;;;;0.20;0.20;;;1.60;99.90;;;1.43;100.00;102067.78;4984307;28;20203;-80
2022/01/11 08:26:12;;;;;;;0.30;0.30;;;1.60;99.90;;;1.49;100.00;102070.84;4998052;28;20225;-79
2022/01/11 08:28:43;;;;;;;0.28;0.28;;;1.70;99.90;;;1.53;100.00;102065.03;5018871;28;20239;-79
2022/01/11 08:31:12;;;;;;;0.20;0.20;;;1.70;99.90;;;1.55;100.00;102068.66;4989181;28;20210;-80
2022/01/11 08:33:48;;;;;;;0.30;0.30;;;1.70;99.90;;;1.56;100.00;102065.25;5008718;28;20202;-80
2022/01/11 08:36:18;;;;;;;0.40;0.40;;;1.80;99.90;;;1.57;100.00;102067.97;5008901;28;20234;-80
2022/01/11 08:38:47;;;;;;;0.20;0.20;;;1.80;99.90;;;1.63;100.00;102067.50;5011267;28;20214;-79
2022/01/11 08:41:19;;;;;;;0.20;0.20;;;1.80;99.90;;;1.61;100.00;102063.88;5007599;28;20215;-80
2022/01/11 08:43:47;;;;;;;0.32;0.32;;;1.80;99.90;;;1.67;100.00;102068.63;5024133;28;20231;-80
2022/01/11 08:46:17;;;;;;;0.20;0.20;;;1.90;99.90;;;1.67;100.00;102055.59;5030542;28;20233;-79
2022/01/11 08:49:04;;;;;;;0.20;0.20;;;1.90;99.90;;;1.75;100.00;102062.25;5007077;28;20210;-80
2022/01/11 08:51:34;;;;;;;0.20;0.20;;;1.90;99.90;;;1.74;100.00;102060.44;4995261;28;20215;-81
2022/01/11 08:54:04;;;;;;;0.28;0.28;;;2.00;99.90;;;1.71;100.00;102055.91;5013892;28;20219;-81
2022/01/11 08:56:33;;;;;;;0.20;0.20;;;2.20;99.90;;;1.70;100.00;102058.41;5009326;28;20231;-81
2022/01/11 08:59:01;;;;;;;0.35;0.35;;;2.00;99.90;;;1.74;100.00;102068.25;4978125;28;20209;-81
2022/01/11 09:01:34;;;;;;;0.40;0.40;;;2.10;99.90;;;1.77;100.00;102081.53;5009836;28;20206;-81
2022/01/11 09:04:05;;;;;;;0.30;0.30;;;2.10;99.90;;;1.79;100.00;102074.72;5020596;28;20214;-81
2022/01/11 09:06:44;;;;;;;0.10;0.10;;;2.10;99.90;;;1.85;100.00;102077.75;4985701;28;20236;-81
2022/01/11 09:09:20;;;;;;;0.30;0.30;;;2.10;99.90;;;1.85;100.00;102075.13;5024200;28;20211;-81
2022/01/11 09:11:49;;;;;;;0.13;0.13;;;2.10;99.90;;;1.86;100.00;102064.81;4982365;28;20214;-81
2022/01/11 09:14:20;;;;;;;0.20;0.20;;;2.10;99.90;;;1.91;100.00;102066.03;4998627;28;20210;-81
2022/01/11 09:16:51;;;;;;;0.20;0.20;;;2.20;99.90;;;1.99;100.00;102076.09;5012869;28;20222;-81
2022/01/11 09:19:20;;;;;;;0.20;0.20;;;2.20;99.90;;;1.98;100.00;102069.97;4980982;28;20261;-81
2022/01/11 09:21:50;;;;;;;0.30;0.30;;;2.20;99.90;;;2.02;100.00;102072.00;5050618;28;20211;-81
2022/01/11 09:24:19;;;;;;;0.20;0.20;;;2.30;99.90;;;1.97;100.00;102068.16;5012760;28;20206;-83
2022/01/11 09:26:53;;;;;;;0.95;0.95;;;2.30;99.90;;;2.02;100.00;102077.22;4995024;28;20234;-83
2022/01/11 09:29:22;;;;;;;0.10;0.10;;;2.30;99.90;;;2.11;100.00;102085.69;4983766;28;20203;-83
2022/01/11 09:31:59;;;;;;;0.15;0.15;;;2.30;99.90;;;2.05;100.00;102072.22;4996865;28;20735;-82
2022/01/11 09:34:37;;;;;;;0.30;0.30;;;2.30;99.90;;;2.04;100.00;102077.31;5000577;28;20215;-82
2022/01/11 09:37:10;;;;;;;0.20;0.20;;;2.40;99.90;;;2.09;100.00;102083.75;4999323;28;20227;-82
2022/01/11 09:39:42;;;;;;;0.20;0.20;;;2.40;99.90;;;2.19;100.00;102089.72;4999589;28;20199;-82
2022/01/11 09:42:11;;;;;;;0.30;0.30;;;2.40;99.90;;;2.22;100.00;102092.53;5016612;28;20204;-80
2022/01/11 09:44:52;;;;;;;0.20;0.20;;;2.40;99.90;;;2.24;100.00;102097.88;5024933;28;20214;-81
2022/01/11 09:47:22;;;;;;;0.20;0.20;;;2.50;99.90;;;2.35;100.00;102116.88;5032120;28;20238;-81
2022/01/11 09:49:52;;;;;;;0.50;0.50;;;2.50;99.90;;;2.39;100.00;102109.38;5016252;28;20226;-81
2022/01/11 09:52:30;;;;;;;0.28;0.28;;;2.60;99.90;;;2.42;100.00;102111.28;4995841;28;20203;-81
2022/01/11 09:54:59;;;;;;;0.25;0.25;;;2.60;99.90;;;2.44;100.00;102107.97;5011918;28;20215;-81
2022/01/11 09:57:31;;;;;;;0.20;0.20;;;2.70;99.90;;;2.51;100.00;102110.19;5028558;28;20231;-81
2022/01/11 10:01:12;;;;;;;0.20;0.20;;;2.80;99.90;;;2.55;100.00;102113.94;5017361;28;20199;-82
2022/01/11 10:03:59;;;;;;;0.20;0.20;;;2.60;99.90;;;2.65;100.00;102116.41;5006733;28;20219;-82
2022/01/11 10:06:55;;;;;;;0.20;0.20;;;2.90;99.90;;;2.74;100.00;102117.00;5018000;28;20227;-83
2022/01/11 10:09:30;;;;;;;0.20;0.20;;;3.00;99.90;;;2.65;100.00;102105.94;5000082;28;20211;-79
2022/01/11 10:12:12;;;;;;;0.13;0.13;;;2.90;99.90;;;2.82;100.00;102133.19;4995494;28;20207;-82
2022/01/11 10:14:52;;;;;;;0.20;0.20;;;3.00;99.90;;;2.89;100.00;102136.31;5015055;28;20207;-83
2022/01/11 10:17:30;;;;;;;0.20;0.20;;;3.10;99.90;;;2.89;100.00;102130.19;4991105;28;20227;-82
2022/01/11 10:20:15;;;;;;;0.20;0.20;;;3.10;99.90;;;2.83;100.00;102119.34;5007532;28;20230;-82
2022/01/11 10:23:07;;;;;;;1.65;1.65;;;3.10;99.90;;;3.02;100.00;102131.91;5005090;28;20670;-83
2022/01/11 10:25:59;;;;;;;0.20;0.20;;;3.10;99.90;;;3.10;100.00;102139.47;4983152;28;20230;-82
2022/01/11 10:28:36;;;;;;;0.20;0.20;;;3.20;99.90;;;3.10;100.00;102130.72;5033926;28;20199;-82
2022/01/11 10:31:08;;;;;;;0.20;0.20;;;3.30;99.90;;;3.05;100.00;102119.06;5019416;28;20199;-82
2022/01/11 10:34:01;;;;;;;0.10;0.10;;;3.30;99.90;;;3.05;100.00;102121.66;5010670;28;20207;-81
2022/01/11 10:36:47;;;;;;;0.20;0.20;;;3.30;99.90;;;3.13;100.00;102121.38;5001049;28;20262;-84
2022/01/11 10:40:02;;;;;;;0.20;0.20;;;3.40;99.90;;;3.10;100.00;102115.94;5016931;28;20195;-83
2022/01/11 10:43:21;;;;;;;0.20;0.20;;;3.40;99.90;;;3.18;100.00;102119.06;5006218;28;20195;-83